SBCP/CAW METAR and TAF weather

Enter ICAO airport designator
Station Type Date Time Source
SBCP METAR 2019/04/19 10:00 UTC NOAA

SBCP 191000Z 00000KT 9999 FEW020 23/22 Q1013


Station Type Date Time Source
SBCP Decoded METAR 2019/04/19 10:00 UTC NOAA

Campos, Brazil (SBCP) 21-45S 041-20W 11M
Apr 19, 2019 - 06:00 AM EDT / 2019.04.19 1000 UTC
Wind: Calm:0
Visibility: greater than 7 mile(s):0
Sky conditions: mostly clear
Temperature: 73 F (23 C)
Dew Point: 71 F (22 C)
Relative Humidity: 94%
Pressure (altimeter): 29.91 in. Hg (1013 hPa)
ob: SBCP 191000Z 00000KT 9999 FEW020 23/22 Q1013
cycle: 10

Station Type Date Time Source
SBCP TAF 2019/04/19 12:32 UTC NOAA

TAF SBCP 190935Z 1912/1924 34005KT 9999 SCT020 TX31/1916Z TN24/1924Z
BECMG 1912/1914 24005KT
BECMG 1916/1918 16007KT
BECMG 1919/1921 14010KT RM K PGW

Example: see airport list